createdAt,value
2023-03-28T00:00:47.020Z,1.70
2023-03-28T00:03:14.586Z,1.83
2023-03-28T00:05:41.453Z,1.60
2023-03-28T00:08:08.605Z,1.30
2023-03-28T00:10:35.020Z,1.83
2023-03-28T00:13:01.421Z,1.60
2023-03-28T00:15:28.647Z,1.40
2023-03-28T00:17:55.136Z,1.60
2023-03-28T00:20:21.625Z,1.70
2023-03-28T00:22:48.588Z,1.10
2023-03-28T00:25:15.000Z,1.83
2023-03-28T00:27:41.632Z,1.30
2023-03-28T00:30:09.471Z,1.87
2023-03-28T00:32:37.202Z,1.43
2023-03-28T00:35:04.341Z,1.90
2023-03-28T00:37:31.767Z,1.60
2023-03-28T00:40:02.155Z,1.60
2023-03-28T00:42:28.618Z,1.30
2023-03-28T00:44:56.874Z,1.70
2023-03-28T00:47:43.716Z,1.50
2023-03-28T00:50:14.557Z,1.90
2023-03-28T00:52:44.636Z,1.80
2023-03-28T00:55:14.767Z,1.40
2023-03-28T00:57:42.050Z,2.33
2023-03-28T01:00:12.245Z,1.13
2023-03-28T01:02:45.936Z,1.70
2023-03-28T01:05:12.556Z,1.23
2023-03-28T01:07:45.241Z,0.93
2023-03-28T01:10:15.268Z,1.00
2023-03-28T01:12:43.132Z,1.53
2023-03-28T01:15:10.312Z,1.30
2023-03-28T01:17:48.057Z,1.70
2023-03-28T01:20:19.743Z,1.43
2023-03-28T01:23:05.397Z,1.47
2023-03-28T01:25:40.879Z,1.87
2023-03-28T01:28:25.453Z,1.63
2023-03-28T01:31:09.660Z,1.43
2023-03-28T01:34:11.218Z,1.20
2023-03-28T01:36:40.537Z,1.10
2023-03-28T01:39:23.207Z,1.33
2023-03-28T01:41:54.154Z,1.50
2023-03-28T01:44:38.389Z,1.27
2023-03-28T01:47:22.135Z,1.60
2023-03-28T01:49:57.442Z,1.60
2023-03-28T01:52:42.884Z,1.23
2023-03-28T01:55:09.666Z,1.03
2023-03-28T01:57:36.238Z,1.77
2023-03-28T02:00:19.616Z,1.20
2023-03-28T02:03:12.875Z,1.47
2023-03-28T02:05:48.221Z,1.57
2023-03-28T02:08:17.323Z,2.33
2023-03-28T02:10:49.628Z,2.80
2023-03-28T02:13:44.876Z,1.53
2023-03-28T02:16:32.500Z,1.40
2023-03-28T02:19:20.506Z,1.60
2023-03-28T02:22:10.887Z,1.27
2023-03-28T02:25:04.114Z,1.40
2023-03-28T02:27:42.624Z,1.10
2023-03-28T02:30:20.368Z,1.20
2023-03-28T02:32:50.426Z,1.40
2023-03-28T02:35:21.979Z,1.47
2023-03-28T02:38:00.578Z,1.30
2023-03-28T02:40:26.990Z,1.57
2023-03-28T02:43:06.693Z,1.40
2023-03-28T02:45:45.581Z,1.67
2023-03-28T02:48:28.005Z,1.30
2023-03-28T02:51:04.150Z,1.23
2023-03-28T02:53:32.795Z,1.00
2023-03-28T02:56:05.518Z,1.37
2023-03-28T02:59:04.517Z,1.60
2023-03-28T03:01:31.689Z,1.33
2023-03-28T03:03:58.520Z,1.10
2023-03-28T03:06:25.368Z,1.47
2023-03-28T03:08:51.894Z,1.57
2023-03-28T03:11:18.423Z,1.07
2023-03-28T03:13:46.935Z,1.60
2023-03-28T03:16:13.442Z,1.40
2023-03-28T03:18:40.065Z,1.90
2023-03-28T03:21:07.013Z,1.50
2023-03-28T03:23:36.606Z,1.30
2023-03-28T03:26:03.610Z,1.67
2023-03-28T03:28:38.234Z,1.10
2023-03-28T03:31:06.360Z,1.87
2023-03-28T03:34:10.511Z,1.00
2023-03-28T03:36:42.708Z,1.30
2023-03-28T03:39:09.139Z,2.27
2023-03-28T03:41:36.629Z,1.07
2023-03-28T03:44:05.665Z,1.60
2023-03-28T03:46:32.153Z,1.90
2023-03-28T03:48:58.580Z,2.03
2023-03-28T03:51:25.422Z,1.43
2023-03-28T03:53:54.613Z,1.73
2023-03-28T03:56:28.792Z,1.70
2023-03-28T03:58:57.483Z,1.83
2023-03-28T04:01:30.017Z,1.30
2023-03-28T04:04:02.945Z,1.67
2023-03-28T04:06:40.457Z,1.60
2023-03-28T04:09:08.520Z,1.60
2023-03-28T04:11:50.470Z,1.37
2023-03-28T04:14:16.886Z,1.33
2023-03-28T04:16:44.649Z,1.30
2023-03-28T04:19:13.716Z,1.50
2023-03-28T04:21:42.708Z,1.90
2023-03-28T04:24:09.479Z,1.37
2023-03-28T04:26:43.267Z,2.10
2023-03-28T04:29:12.315Z,1.10
2023-03-28T04:31:49.522Z,1.50
2023-03-28T04:34:37.043Z,1.60
2023-03-28T04:37:10.306Z,1.30
2023-03-28T04:39:49.100Z,1.47
2023-03-28T04:42:38.992Z,1.50
2023-03-28T04:45:12.084Z,1.10
2023-03-28T04:47:40.897Z,1.40
2023-03-28T04:50:14.652Z,1.40
2023-03-28T04:52:41.298Z,1.33
2023-03-28T04:55:07.952Z,1.50
2023-03-28T04:57:36.987Z,1.23
2023-03-28T05:00:09.865Z,1.83
2023-03-28T05:03:04.873Z,1.53
2023-03-28T05:05:41.535Z,1.53
2023-03-28T05:08:12.895Z,1.80
2023-03-28T05:10:39.585Z,1.37
2023-03-28T05:13:07.797Z,1.50
2023-03-28T05:15:42.408Z,1.30
2023-03-28T05:18:23.476Z,1.80
2023-03-28T05:20:50.633Z,2.17
2023-03-28T05:23:18.714Z,1.50
2023-03-28T05:25:52.748Z,1.43
2023-03-28T05:28:21.170Z,1.83
2023-03-28T05:30:51.275Z,1.70
2023-03-28T05:33:17.883Z,1.83
2023-03-28T05:35:45.963Z,2.13
2023-03-28T05:38:14.202Z,1.50
2023-03-28T05:40:41.330Z,1.23
2023-03-28T05:43:07.785Z,1.73
2023-03-28T05:45:35.780Z,1.57
2023-03-28T05:48:08.962Z,1.73
2023-03-28T05:50:36.451Z,1.70
2023-03-28T05:53:06.453Z,1.90
2023-03-28T05:55:35.536Z,1.50
2023-03-28T05:58:02.406Z,1.60
2023-03-28T06:00:37.057Z,1.60
2023-03-28T06:03:03.669Z,2.00
2023-03-28T06:05:36.838Z,2.00
2023-03-28T06:08:09.348Z,2.27
2023-03-28T06:10:36.655Z,1.40
2023-03-28T06:13:26.273Z,1.40
2023-03-28T06:15:53.591Z,1.30
2023-03-28T06:18:28.802Z,1.30
2023-03-28T06:20:55.547Z,1.90
2023-03-28T06:23:22.391Z,2.23
2023-03-28T06:25:49.390Z,2.00
2023-03-28T06:28:17.701Z,1.80
2023-03-28T06:31:02.610Z,1.50
2023-03-28T06:33:29.878Z,1.60
2023-03-28T06:35:56.259Z,2.10
2023-03-28T06:38:23.788Z,1.60
2023-03-28T06:40:52.342Z,1.60
2023-03-28T06:43:18.741Z,1.60
2023-03-28T06:45:47.526Z,1.70
2023-03-28T06:48:14.811Z,2.13
2023-03-28T06:51:00.969Z,2.20
2023-03-28T06:53:28.024Z,1.90
2023-03-28T06:55:54.907Z,1.80
2023-03-28T06:58:22.623Z,1.90
2023-03-28T07:00:55.298Z,1.53
2023-03-28T07:03:40.343Z,1.80
2023-03-28T07:06:08.415Z,1.73
2023-03-28T07:08:35.470Z,2.07
2023-03-28T07:11:02.467Z,1.50
2023-03-28T07:13:29.634Z,1.90
2023-03-28T07:16:10.572Z,2.37
2023-03-28T07:18:38.321Z,1.80
2023-03-28T07:21:05.969Z,2.30
2023-03-28T07:23:32.621Z,2.63
2023-03-28T07:25:59.122Z,1.80
2023-03-28T07:28:25.744Z,2.40
2023-03-28T07:30:56.349Z,1.60
2023-03-28T07:33:30.255Z,2.30
2023-03-28T07:36:01.090Z,1.30
2023-03-28T07:38:27.597Z,2.10
2023-03-28T07:41:00.296Z,1.63
2023-03-28T07:43:27.035Z,1.73
2023-03-28T07:45:59.098Z,1.90
2023-03-28T07:48:25.682Z,1.67
2023-03-28T07:50:52.162Z,2.13
2023-03-28T07:53:19.370Z,1.97
2023-03-28T07:55:54.346Z,2.03
2023-03-28T07:58:25.008Z,1.70
2023-03-28T08:00:52.619Z,2.00
2023-03-28T08:03:43.464Z,1.70
2023-03-28T08:06:28.705Z,1.53
2023-03-28T08:08:58.360Z,1.70
2023-03-28T08:11:33.326Z,1.80
2023-03-28T08:14:00.812Z,2.47
2023-03-28T08:16:30.142Z,2.90
2023-03-28T08:19:10.081Z,2.00
2023-03-28T08:21:53.513Z,2.23
2023-03-28T08:24:32.749Z,2.20
2023-03-28T08:27:08.971Z,2.10
2023-03-28T08:29:35.438Z,3.10
2023-03-28T08:32:04.145Z,2.07
2023-03-28T08:34:30.697Z,2.10
2023-03-28T08:36:59.839Z,2.50
2023-03-28T08:39:27.742Z,2.53
2023-03-28T08:42:13.063Z,2.10
2023-03-28T08:44:58.509Z,1.77
2023-03-28T08:47:24.917Z,1.93
2023-03-28T08:49:56.770Z,2.50
2023-03-28T08:52:23.778Z,2.67
2023-03-28T08:54:59.886Z,2.10
2023-03-28T08:57:29.197Z,2.40
2023-03-28T09:00:01.055Z,2.07
2023-03-28T09:02:29.657Z,2.00
2023-03-28T09:05:08.225Z,1.83
2023-03-28T09:07:48.930Z,1.87
2023-03-28T09:10:33.648Z,2.47
2023-03-28T09:13:12.322Z,2.13
2023-03-28T09:15:42.078Z,2.53
2023-03-28T09:18:26.535Z,1.97
2023-03-28T09:21:04.501Z,2.30
2023-03-28T09:23:34.560Z,1.73
2023-03-28T09:26:27.763Z,2.40
2023-03-28T09:29:15.504Z,2.60
2023-03-28T09:31:46.638Z,2.13
2023-03-28T09:34:27.418Z,2.00
2023-03-28T09:36:59.552Z,2.30
2023-03-28T09:39:36.853Z,2.27
2023-03-28T09:42:13.308Z,1.97
2023-03-28T09:44:56.475Z,2.20
2023-03-28T09:47:46.592Z,2.60
2023-03-28T09:50:16.377Z,2.60
2023-03-28T09:52:48.513Z,2.10
2023-03-28T09:55:23.082Z,2.17
2023-03-28T09:58:01.063Z,1.90
2023-03-28T10:00:29.638Z,2.63
2023-03-28T10:03:29.008Z,2.50
2023-03-28T10:05:57.277Z,2.67
2023-03-28T10:08:36.824Z,2.03
2023-03-28T10:11:13.204Z,2.23
2023-03-28T10:13:41.511Z,2.67
2023-03-28T10:16:10.792Z,2.60
2023-03-28T10:18:58.322Z,1.90
2023-03-28T10:21:38.327Z,2.27
2023-03-28T10:24:16.728Z,1.97
2023-03-28T10:26:49.677Z,1.67
2023-03-28T10:29:16.790Z,2.40
2023-03-28T10:31:48.218Z,1.67
2023-03-28T10:34:33.461Z,2.37
2023-03-28T10:37:26.222Z,2.33
2023-03-28T10:40:20.587Z,2.40
2023-03-28T10:43:11.679Z,2.43
2023-03-28T10:45:54.333Z,2.17
2023-03-28T10:48:47.811Z,2.40
2023-03-28T10:51:22.427Z,1.90
2023-03-28T10:54:02.236Z,2.00
2023-03-28T10:56:34.898Z,2.67
2023-03-28T10:59:10.219Z,2.43
2023-03-28T11:01:55.908Z,2.00
2023-03-28T11:04:28.225Z,2.40
2023-03-28T11:07:01.737Z,1.80
2023-03-28T11:09:46.787Z,2.63
2023-03-28T11:12:55.515Z,2.60
2023-03-28T11:15:26.534Z,2.57
2023-03-28T11:18:09.510Z,2.30
2023-03-28T11:20:55.914Z,1.60
2023-03-28T11:23:31.549Z,2.03
2023-03-28T11:26:29.829Z,2.00
2023-03-28T11:29:36.593Z,2.47
2023-03-28T11:32:12.227Z,1.60
2023-03-28T11:34:43.198Z,2.00
2023-03-28T11:37:32.745Z,2.20
2023-03-28T11:40:06.688Z,1.97
2023-03-28T11:42:47.565Z,2.27
2023-03-28T11:45:49.541Z,2.13
2023-03-28T11:48:28.622Z,2.00
2023-03-28T11:51:07.835Z,2.33
2023-03-28T11:53:46.542Z,1.70
2023-03-28T11:56:18.683Z,2.00
2023-03-28T11:59:04.723Z,1.70
2023-03-28T12:01:34.011Z,1.90
2023-03-28T12:04:05.019Z,2.00
2023-03-28T12:06:35.605Z,2.10
2023-03-28T12:09:24.438Z,2.10
2023-03-28T12:12:02.158Z,1.80
2023-03-28T12:14:46.922Z,2.37
2023-03-28T12:17:36.229Z,1.67
2023-03-28T12:20:06.794Z,2.07
2023-03-28T12:22:42.531Z,1.70
2023-03-28T12:25:13.088Z,2.10
2023-03-28T12:27:52.442Z,2.47
2023-03-28T12:30:32.837Z,1.97
2023-03-28T12:33:13.496Z,1.93
2023-03-28T12:35:52.740Z,1.80
2023-03-28T12:38:40.255Z,1.80
2023-03-28T12:41:31.395Z,2.00
2023-03-28T12:44:05.153Z,1.73
2023-03-28T12:46:57.817Z,1.90
2023-03-28T12:49:40.335Z,3.27
2023-03-28T12:52:14.665Z,3.27
2023-03-28T12:55:01.101Z,2.30
2023-03-28T12:57:43.461Z,2.33
2023-03-28T13:00:51.067Z,3.20
2023-03-28T13:03:54.301Z,2.80
2023-03-28T13:06:53.485Z,3.40
2023-03-28T13:09:39.099Z,2.77
2023-03-28T13:12:21.859Z,2.40
2023-03-28T13:14:58.208Z,2.70
2023-03-28T13:17:26.511Z,1.50
2023-03-28T13:20:09.463Z,2.10
2023-03-28T13:22:54.609Z,2.20
2023-03-28T13:25:21.933Z,1.57
2023-03-28T13:27:49.410Z,1.57
2023-03-28T13:30:16.593Z,1.57
2023-03-28T13:32:50.487Z,1.30
2023-03-28T13:35:35.771Z,2.00
2023-03-28T13:38:13.486Z,2.50
2023-03-28T13:40:42.940Z,2.53
2023-03-28T13:43:22.593Z,1.90
2023-03-28T13:45:54.361Z,1.80
2023-03-28T13:48:22.061Z,1.53
2023-03-28T13:50:49.370Z,2.27
2023-03-28T13:53:15.924Z,1.40
2023-03-28T13:55:43.439Z,1.30
2023-03-28T13:58:12.639Z,1.77
2023-03-28T14:00:39.418Z,1.53
2023-03-28T14:03:12.855Z,1.63
2023-03-28T14:05:43.847Z,1.20
2023-03-28T14:08:13.741Z,1.50
2023-03-28T14:10:44.895Z,2.03
2023-03-28T14:13:22.443Z,1.33
2023-03-28T14:15:51.844Z,1.70
2023-03-28T14:18:31.663Z,1.70
2023-03-28T14:20:58.445Z,1.30
2023-03-28T14:23:29.750Z,1.10
2023-03-28T14:26:04.639Z,1.40
2023-03-28T14:28:31.779Z,2.10
2023-03-28T14:30:58.631Z,1.70
2023-03-28T14:33:25.716Z,1.33
2023-03-28T14:35:57.342Z,1.50
2023-03-28T14:38:42.795Z,2.07
2023-03-28T14:41:19.154Z,1.60
2023-03-28T14:43:54.079Z,1.20
2023-03-28T14:46:22.936Z,1.60
2023-03-28T14:48:53.571Z,1.60
2023-03-28T14:51:21.440Z,2.20
2023-03-28T14:53:48.570Z,1.77
2023-03-28T14:56:19.146Z,1.50
2023-03-28T14:58:47.109Z,1.50
2023-03-28T15:01:22.519Z,1.70
2023-03-28T15:04:08.123Z,1.53
2023-03-28T15:06:34.893Z,1.47
2023-03-28T15:09:08.812Z,1.90
2023-03-28T15:11:36.333Z,1.50
2023-03-28T15:14:03.151Z,1.40
2023-03-28T15:16:30.666Z,1.37
2023-03-28T15:18:58.829Z,2.60
2023-03-28T15:21:26.351Z,2.63
2023-03-28T15:23:56.875Z,1.60
2023-03-28T15:26:30.162Z,1.60
2023-03-28T15:28:57.756Z,1.50
2023-03-28T15:31:24.995Z,2.50
2023-03-28T15:33:52.274Z,1.50
2023-03-28T15:36:32.295Z,1.60
2023-03-28T15:39:00.157Z,1.50
2023-03-28T15:41:38.901Z,1.50
2023-03-28T15:44:24.517Z,1.30
2023-03-28T15:46:52.093Z,1.33
2023-03-28T15:49:18.602Z,1.50
2023-03-28T15:51:49.550Z,1.50
2023-03-28T15:54:27.951Z,2.00
2023-03-28T15:56:59.096Z,2.80
2023-03-28T15:59:42.328Z,1.60
2023-03-28T16:02:19.044Z,2.43
2023-03-28T16:05:03.862Z,1.90
2023-03-28T16:07:33.171Z,1.50
2023-03-28T16:09:59.756Z,2.33
2023-03-28T16:12:26.939Z,2.23
2023-03-28T16:15:32.630Z,2.13
2023-03-28T16:18:11.132Z,2.00
2023-03-28T16:20:46.918Z,2.10
2023-03-28T16:23:14.148Z,1.60
2023-03-28T16:25:41.126Z,1.80
2023-03-28T16:28:07.757Z,2.33
2023-03-28T16:30:36.726Z,1.60
2023-03-28T16:33:05.885Z,1.90
2023-03-28T16:35:33.887Z,1.70
2023-03-28T16:38:01.167Z,2.00
2023-03-28T16:40:28.153Z,1.80
2023-03-28T16:42:55.617Z,1.90
2023-03-28T16:45:22.983Z,1.87
2023-03-28T16:47:49.433Z,1.50
2023-03-28T16:50:16.993Z,1.87
2023-03-28T16:52:44.105Z,1.70
2023-03-28T16:55:11.886Z,2.00
2023-03-28T16:57:38.311Z,1.73
2023-03-28T17:00:05.686Z,2.50
2023-03-28T17:02:32.303Z,2.33
2023-03-28T17:04:58.728Z,2.77
2023-03-28T17:07:25.537Z,2.50
2023-03-28T17:09:52.451Z,2.83
2023-03-28T17:12:21.015Z,1.50
2023-03-28T17:14:47.442Z,2.80
2023-03-28T17:17:14.229Z,1.77
2023-03-28T17:19:40.899Z,1.80
2023-03-28T17:22:07.469Z,1.80
2023-03-28T17:24:33.972Z,2.00
2023-03-28T17:27:00.862Z,1.83
2023-03-28T17:29:27.531Z,2.00
2023-03-28T17:31:54.373Z,2.27
2023-03-28T17:34:21.302Z,1.73
2023-03-28T17:36:48.846Z,1.67
2023-03-28T17:39:15.751Z,1.63
2023-03-28T17:41:42.744Z,2.17
2023-03-28T17:44:09.327Z,2.90
2023-03-28T17:46:36.660Z,2.60
2023-03-28T17:49:03.702Z,2.50
2023-03-28T17:51:30.191Z,2.83
2023-03-28T17:53:56.870Z,3.87
2023-03-28T17:56:24.271Z,3.33
2023-03-28T17:58:50.654Z,3.20
2023-03-28T18:01:18.493Z,3.60
2023-03-28T18:03:46.209Z,3.17
2023-03-28T18:06:33.600Z,3.50
2023-03-28T18:09:00.139Z,3.30
2023-03-28T18:11:26.971Z,3.57
2023-03-28T18:13:56.823Z,3.80
2023-03-28T18:16:24.016Z,3.60
2023-03-28T18:18:51.262Z,3.90
2023-03-28T18:21:17.652Z,3.23
2023-03-28T18:23:44.437Z,4.43
2023-03-28T18:26:11.946Z,4.00
2023-03-28T18:28:38.851Z,4.83
2023-03-28T18:31:06.443Z,4.70
2023-03-28T18:33:34.971Z,4.03
2023-03-28T18:36:02.046Z,4.77
2023-03-28T18:38:28.640Z,4.50
2023-03-28T18:40:55.033Z,4.27
2023-03-28T18:43:21.462Z,4.27
2023-03-28T18:45:56.975Z,2.97
2023-03-28T18:48:23.465Z,3.70
2023-03-28T18:50:51.041Z,3.70
2023-03-28T18:53:18.572Z,3.10
2023-03-28T18:55:45.578Z,3.00
2023-03-28T18:58:12.125Z,3.60
2023-03-28T19:00:41.686Z,4.07
2023-03-28T19:03:17.465Z,3.03
2023-03-28T19:05:44.407Z,3.53
2023-03-28T19:08:10.893Z,2.30
2023-03-28T19:10:37.503Z,3.20
2023-03-28T19:15:57.479Z,2.73
2023-03-28T19:18:23.924Z,2.70
2023-03-28T19:20:50.908Z,2.20
2023-03-28T19:23:17.341Z,2.80
2023-03-28T19:25:44.831Z,3.40
2023-03-28T19:28:11.249Z,3.47
2023-03-28T19:30:38.838Z,4.07
2023-03-28T19:33:06.912Z,3.97
2023-03-28T19:35:54.002Z,3.97
2023-03-28T19:38:21.759Z,3.40
2023-03-28T19:40:48.920Z,2.63
2023-03-28T19:43:20.879Z,2.63
2023-03-28T19:45:48.230Z,3.27
2023-03-28T19:48:16.292Z,2.67
2023-03-28T19:50:42.970Z,2.90
2023-03-28T19:53:09.901Z,3.30
2023-03-28T19:55:36.376Z,2.90
2023-03-28T19:58:05.300Z,4.10
2023-03-28T20:00:32.778Z,3.30
2023-03-28T20:02:59.664Z,3.50
2023-03-28T20:05:26.807Z,3.03
2023-03-28T20:07:53.245Z,2.80
2023-03-28T20:10:19.615Z,2.47
2023-03-28T20:12:46.208Z,3.40
2023-03-28T20:15:13.814Z,3.43
2023-03-28T20:17:41.316Z,4.40
2023-03-28T20:20:08.828Z,3.97
2023-03-28T20:22:35.498Z,4.07
2023-03-28T20:25:01.908Z,2.60
2023-03-28T20:27:29.307Z,2.37
2023-03-28T20:29:55.795Z,2.53
2023-03-28T20:32:22.434Z,2.70
2023-03-28T20:34:49.085Z,3.47
2023-03-28T20:37:17.324Z,2.17
2023-03-28T20:42:32.575Z,2.50
2023-03-28T20:45:00.302Z,2.10
2023-03-28T20:47:28.667Z,2.30
2023-03-28T20:49:59.229Z,2.97
2023-03-28T20:52:25.608Z,2.40
2023-03-28T20:54:52.117Z,2.53
2023-03-28T20:57:19.041Z,2.37
2023-03-28T20:59:45.598Z,2.50
2023-03-28T21:02:12.415Z,3.17
2023-03-28T21:04:42.594Z,2.60
2023-03-28T21:07:11.120Z,2.90
2023-03-28T21:09:38.776Z,4.13
2023-03-28T21:12:26.617Z,3.47
2023-03-28T21:14:58.640Z,3.60
2023-03-28T21:17:26.093Z,4.80
2023-03-28T21:19:53.870Z,3.97
2023-03-28T21:22:21.377Z,3.00
2023-03-28T21:24:48.535Z,2.70
2023-03-28T21:27:16.338Z,3.13
2023-03-28T21:29:43.308Z,2.47
2023-03-28T21:32:10.242Z,2.60
2023-03-28T21:34:37.073Z,2.77
2023-03-28T21:37:04.254Z,2.37
2023-03-28T21:39:31.911Z,3.10
2023-03-28T21:41:58.382Z,2.20
2023-03-28T21:44:25.095Z,3.00
2023-03-28T21:46:51.926Z,2.37
2023-03-28T21:49:19.356Z,3.07
2023-03-28T21:51:47.664Z,2.80
2023-03-28T21:54:14.127Z,2.70
2023-03-28T21:56:41.250Z,2.63
2023-03-28T21:59:07.920Z,3.00
2023-03-28T22:01:34.385Z,3.13
2023-03-28T22:04:02.066Z,2.07
2023-03-28T22:06:28.843Z,2.00
2023-03-28T22:08:56.849Z,2.40
2023-03-28T22:11:27.417Z,2.60
2023-03-28T22:14:05.102Z,2.50
2023-03-28T22:16:53.209Z,3.43
2023-03-28T22:19:20.073Z,3.20
2023-03-28T22:21:48.514Z,3.03
2023-03-28T22:24:15.195Z,3.00
2023-03-28T22:26:42.764Z,3.50
2023-03-28T22:29:10.433Z,2.40
2023-03-28T22:31:37.365Z,4.00
2023-03-28T22:34:03.794Z,2.90
2023-03-28T22:36:30.336Z,2.47
2023-03-28T22:39:19.331Z,2.23
2023-03-28T22:41:46.267Z,2.53
2023-03-28T22:44:13.022Z,2.40
2023-03-28T22:46:41.136Z,2.47
2023-03-28T22:49:12.941Z,2.00
2023-03-28T22:51:45.976Z,2.70
2023-03-28T22:54:26.770Z,2.03
2023-03-28T22:56:53.233Z,2.93
2023-03-28T22:59:38.271Z,2.50
2023-03-28T23:02:06.208Z,2.33
2023-03-28T23:07:18.003Z,2.17
2023-03-28T23:09:44.384Z,2.73
2023-03-28T23:12:11.657Z,2.43
2023-03-28T23:14:39.154Z,2.10
2023-03-28T23:17:05.641Z,2.37
2023-03-28T23:19:32.632Z,2.70
2023-03-28T23:21:59.379Z,2.60
2023-03-28T23:24:29.229Z,2.47
2023-03-28T23:26:56.743Z,2.73
2023-03-28T23:29:24.008Z,2.80
2023-03-28T23:31:50.623Z,2.00
2023-03-28T23:34:18.055Z,2.33
2023-03-28T23:36:46.323Z,2.63
2023-03-28T23:39:13.472Z,2.40
2023-03-28T23:41:40.706Z,2.80
2023-03-28T23:44:07.950Z,2.77
2023-03-28T23:46:36.021Z,2.40
2023-03-28T23:49:02.830Z,3.43
2023-03-28T23:51:31.188Z,2.23
2023-03-28T23:53:57.634Z,2.70
2023-03-28T23:56:24.889Z,2.30
2023-03-28T23:58:51.917Z,2.87
